»·PEaware :: AWE2180 KPHX-KBUR

AWE2180 :: KPHX-KBUR

FLIGHT INFORMATION

Flight Status: Arrived
Operator:
US Airways
More flights by this operator :: More flights under this callsign
Pilot: Jim M. (18055)
Aircraft: BOEING 737-300
(B733)
More flights by this aircraft type
Origin: KPHX Phoenix Sky Harbor Intl
United States
Destination: KBUR Bob Hope-Burbank
United States
More flights between these airports :: More routes between these airports
Route: +ZEPER1 JKPOT EED JANNY5
File this flight plan on PilotEdge
Remarks:
Altitude:
(Current/Filed)
32,000ft
Speed:
(Current/Filed)
450kts
Departed: 03-Feb-19 09:45 AM
Arrived: 03-Feb-19 11:00 AM
Distance/Time
Traveled:
319nm/1:15
Distance/Time
To Go:
Arrived

Flight Plot

Page will automatically refresh every two minutes.

Flight plan parsing failed; only flown route is shown


Map Options




Map Legend


Flown Route
Filed Route
Departure Airport
Arrival Airport
Navaid (VOR, NDB)
Fix

Horizontal Profiles

Position Reports

Time Latitude Longitude Heading Altitude Ground
Speed
03-Feb-19 09:03 33.437259 -111.999881 92 1129ft 0kts
03-Feb-19 09:04 33.437259 -111.999881 92 1129ft 0kts
03-Feb-19 09:05 33.437259 -111.999881 92 1129ft 0kts
03-Feb-19 09:06 33.437259 -111.999881 92 1129ft 0kts
03-Feb-19 09:07 33.437259 -111.999881 92 1129ft 0kts
03-Feb-19 09:08 33.437259 -111.999881 92 1129ft 0kts
03-Feb-19 09:09 33.437259 -111.999881 92 1129ft 0kts
03-Feb-19 09:10 33.437259 -111.999881 92 1129ft 0kts
03-Feb-19 09:11 33.437259 -111.999881 92 1129ft 0kts
03-Feb-19 09:11 33.437259 -111.999881 92 1129ft 0kts
03-Feb-19 09:12 33.437259 -111.999881 92 1129ft 0kts
03-Feb-19 09:14 33.437259 -111.999881 92 1129ft 0kts
03-Feb-19 09:14 33.437259 -111.999881 92 1129ft 0kts
03-Feb-19 09:15 33.437259 -111.999881 92 1129ft 0kts
03-Feb-19 09:16 33.437259 -111.999881 92 1129ft 0kts
03-Feb-19 09:17 33.437259 -111.999881 92 1129ft 0kts
03-Feb-19 09:18 33.437259 -111.999881 92 1129ft 0kts
03-Feb-19 09:19 33.437259 -111.999881 92 1129ft 0kts
03-Feb-19 09:20 33.437259 -111.999881 92 1129ft 0kts
03-Feb-19 09:21 33.437259 -111.999881 92 1129ft 0kts
03-Feb-19 09:22 33.437259 -111.999881 92 1129ft 0kts
03-Feb-19 09:23 33.437259 -111.999881 92 1129ft 0kts
03-Feb-19 09:24 33.437259 -111.999881 92 1129ft 0kts
03-Feb-19 09:25 33.437259 -111.999881 92 1129ft 0kts
03-Feb-19 09:26 33.437259 -111.999881 92 1129ft 0kts
03-Feb-19 09:27 33.437259 -111.999881 92 1129ft 0kts
03-Feb-19 09:28 33.437259 -111.999881 92 1129ft 0kts
03-Feb-19 09:29 33.437259 -111.999881 92 1129ft 0kts
03-Feb-19 09:30 33.437259 -111.999881 92 1129ft 0kts
03-Feb-19 09:31 33.437139 -112.000138 35 1129ft 2kts
03-Feb-19 09:32 33.436605 -112.000310 359 1129ft 0kts
03-Feb-19 09:33 33.436810 -112.000309 359 1129ft 0kts
03-Feb-19 09:34 33.436810 -112.000309 359 1129ft 0kts
03-Feb-19 09:35 33.436810 -112.000309 359 1129ft 0kts
03-Feb-19 09:36 33.436849 -112.000315 351 1129ft 1kts
03-Feb-19 09:37 33.438261 -112.000331 0 1129ft 0kts
03-Feb-19 09:38 33.439024 -112.002638 269 1129ft 15kts
03-Feb-19 09:39 33.438992 -112.008989 270 1126ft 23kts
03-Feb-19 09:40 33.438997 -112.016095 270 1123ft 22kts
03-Feb-19 09:41 33.439003 -112.025341 271 1116ft 29kts
03-Feb-19 09:42 33.439639 -112.029667 354 1113ft 3kts
03-Feb-19 09:43 33.440639 -112.029665 25 1113ft 9kts
03-Feb-19 09:44 33.441111 -112.004405 88 1272ft 176kts
03-Feb-19 09:45 33.441064 -111.931671 99 2127ft 235kts
03-Feb-19 09:46 33.452921 -111.852555 31 4926ft 279kts
03-Feb-19 09:47 33.533516 -111.842708 1 7921ft 302kts
03-Feb-19 09:48 33.619980 -111.838185 359 10536ft 325kts
03-Feb-19 09:49 33.719975 -111.850194 334 12412ft 368kts
03-Feb-19 09:50 33.786285 -111.937470 300 15307ft 359kts
03-Feb-19 09:51 33.846697 -112.036347 299 18066ft 371kts
03-Feb-19 09:52 33.908998 -112.138488 299 20585ft 382kts
03-Feb-19 09:53 33.972872 -112.243493 298 22877ft 391kts
03-Feb-19 09:54 34.041809 -112.349203 311 24956ft 413kts
03-Feb-19 09:55 34.132680 -112.439661 311 26891ft 422kts
03-Feb-19 09:56 34.221771 -112.529094 310 29364ft 407kts
03-Feb-19 09:57 34.309582 -112.617818 310 30606ft 419kts
03-Feb-19 09:58 34.401616 -112.711059 310 31784ft 426kts
03-Feb-19 09:59 34.492898 -112.803753 310 31995ft 423kts
03-Feb-19 10:00 34.583098 -112.895850 309 31980ft 419kts
03-Feb-19 10:01 34.672754 -112.988038 310 31980ft 420kts
03-Feb-19 10:02 34.714179 -113.100305 246 31972ft 372kts
03-Feb-19 10:03 34.704509 -113.222995 271 31997ft 367kts
03-Feb-19 10:04 34.712359 -113.347053 269 31954ft 364kts
03-Feb-19 10:05 34.718957 -113.471208 269 31955ft 365kts
03-Feb-19 10:06 34.725390 -113.595980 269 31955ft 364kts
03-Feb-19 10:07 34.731672 -113.720322 269 31959ft 364kts
03-Feb-19 10:08 34.737808 -113.844457 269 31953ft 365kts
03-Feb-19 10:09 34.743845 -113.969036 269 31959ft 364kts
03-Feb-19 10:10 34.749734 -114.093301 269 31967ft 364kts
03-Feb-19 10:11 34.755480 -114.217807 269 31965ft 364kts
03-Feb-19 10:12 34.761127 -114.342351 269 31965ft 364kts
03-Feb-19 10:13 34.766636 -114.466593 269 31965ft 364kts
03-Feb-19 10:14 34.768865 -114.592215 268 31962ft 366kts
03-Feb-19 10:15 34.771646 -114.717427 267 31969ft 365kts
03-Feb-19 10:16 34.774335 -114.842590 267 31962ft 366kts
03-Feb-19 10:17 34.776669 -114.967276 267 31933ft 371kts
03-Feb-19 10:18 34.779066 -115.095285 267 31969ft 376kts
03-Feb-19 10:19 34.781493 -115.222951 268 31964ft 376kts
03-Feb-19 10:20 34.783766 -115.351028 268 31962ft 376kts
03-Feb-19 10:21 34.785884 -115.478878 268 31966ft 375kts
03-Feb-19 10:22 34.787903 -115.606195 268 31991ft 375kts
03-Feb-19 10:23 34.789666 -115.731357 267 32011ft 375kts
03-Feb-19 10:24 34.791450 -115.858191 268 31474ft 369kts
03-Feb-19 10:25 34.793647 -115.983200 268 28328ft 373kts
03-Feb-19 10:26 34.795980 -116.108422 269 26148ft 359kts
03-Feb-19 10:27 34.798138 -116.231150 269 24155ft 348kts
03-Feb-19 10:28 34.794678 -116.344715 266 23627ft 350kts
03-Feb-19 10:29 34.790766 -116.462485 267 23227ft 347kts
03-Feb-19 10:30 34.785401 -116.579991 263 22807ft 344kts
03-Feb-19 10:31 34.773620 -116.700676 263 21975ft 357kts
03-Feb-19 10:32 34.761761 -116.822156 263 21928ft 358kts
03-Feb-19 10:33 34.749767 -116.942199 262 21216ft 349kts
03-Feb-19 10:34 34.737765 -117.061022 262 20962ft 352kts
03-Feb-19 10:35 34.725753 -117.178949 261 20112ft 348kts
03-Feb-19 10:36 34.713766 -117.295515 261 19110ft 344kts
03-Feb-19 10:37 34.701814 -117.410649 261 18108ft 341kts
03-Feb-19 10:38 34.689592 -117.524369 261 17031ft 337kts
03-Feb-19 10:39 34.677556 -117.636853 261 15830ft 332kts
03-Feb-19 10:40 34.665783 -117.748067 261 14598ft 328kts
03-Feb-19 10:41 34.654138 -117.857553 261 13919ft 324kts
03-Feb-19 10:42 34.642204 -117.966530 261 12114ft 321kts
03-Feb-19 10:43 34.630537 -118.068389 255 10799ft 281kts
03-Feb-19 10:44 34.611320 -118.154859 253 9531ft 256kts
03-Feb-19 10:45 34.592832 -118.237882 253 8260ft 255kts
03-Feb-19 10:46 34.575412 -118.316143 253 7958ft 223kts
03-Feb-19 10:47 34.559711 -118.386056 251 7950ft 212kts
03-Feb-19 10:48 34.531446 -118.446186 212 7340ft 212kts
03-Feb-19 10:49 34.482309 -118.485328 211 6981ft 212kts
03-Feb-19 10:50 34.432163 -118.524339 210 5949ft 214kts
03-Feb-19 10:51 34.381382 -118.563745 210 5984ft 214kts
03-Feb-19 10:52 34.325153 -118.591584 191 4854ft 241kts
03-Feb-19 10:53 34.257462 -118.609515 191 4999ft 225kts
03-Feb-19 10:54 34.216291 -118.585334 111 4413ft 186kts
03-Feb-19 10:55 34.199478 -118.528256 95 2999ft 179kts
03-Feb-19 10:56 34.199108 -118.474549 93 2492ft 137kts
03-Feb-19 10:58 34.198617 -118.429277 92 1744ft 132kts
03-Feb-19 10:59 34.198078 -118.384834 92 1058ft 129kts
03-Feb-19 11:00 34.197728 -118.352929 92 702ft 23kts
03-Feb-19 11:01 34.197306 -118.351412 127 699ft 0kts
03-Feb-19 11:02 34.196903 -118.351035 174 698ft 0kts
03-Feb-19 11:03 34.196790 -118.351021 174 698ft 0kts
03-Feb-19 11:04 34.196790 -118.351021 174 698ft 0kts
03-Feb-19 11:05 34.196790 -118.351021 174 698ft 0kts

Navigation Log

Ident Type
Flight plan parsing failed, navigation log unavailable